Time;durP1;ratioP1;P1;durP2;ratioP2;P2;SDS_P1;SDS_P2;PMS_P1;PMS_P2;Temp;Humidity;BMP_temperature;BMP_pressure;BME280_temperature;BME280_humidity;BME280_pressure;Samples;Min_cycle;Max_cycle;Signal;HPM_P1;HPM_P2
2020/12/06 00:00:33;;;;;;;25.33;11.03;;;2.50;99.90;;;;;;4190162;28;20558;-54
2020/12/06 00:02:34;;;;;;;24.80;11.50;;;2.50;99.90;;;;;;4192821;28;20471;-54
2020/12/06 00:04:35;;;;;;;25.73;11.17;;;2.50;99.90;;;;;;4191301;28;20475;-54
2020/12/06 00:06:37;;;;;;;28.10;11.77;;;2.50;99.90;;;;;;4190956;28;20637;-55
2020/12/06 00:08:40;;;;;;;24.73;11.37;;;2.50;99.90;;;;;;4192621;28;20485;-53
2020/12/06 00:10:41;;;;;;;22.70;10.10;;;2.50;99.90;;;;;;4191181;28;20477;-53
2020/12/06 00:12:42;;;;;;;21.93;10.03;;;2.60;99.90;;;;;;4190996;28;20966;-54
2020/12/06 00:14:44;;;;;;;25.67;11.37;;;2.60;99.90;;;;;;4192129;28;20471;-54
2020/12/06 00:16:48;;;;;;;24.17;10.70;;;2.60;99.90;;;;;;4191534;28;20485;-54
2020/12/06 00:18:50;;;;;;;24.80;11.87;;;2.60;99.90;;;;;;4192419;28;20492;-54
2020/12/06 00:20:51;;;;;;;27.83;12.17;;;2.70;99.90;;;;;;4192034;28;20474;-54
2020/12/06 00:22:52;;;;;;;28.40;11.80;;;2.60;99.90;;;;;;4191111;28;20469;-54
2020/12/06 00:24:55;;;;;;;26.90;12.50;;;2.60;99.90;;;;;;4190652;28;20562;-54
2020/12/06 00:26:57;;;;;;;28.57;12.60;;;2.60;99.90;;;;;;4190148;28;20999;-54
2020/12/06 00:29:00;;;;;;;23.60;11.00;;;2.60;99.90;;;;;;4190746;28;20469;-54
2020/12/06 00:31:01;;;;;;;24.53;11.73;;;2.60;99.90;;;;;;4189800;28;20480;-54
2020/12/06 00:33:02;;;;;;;26.33;11.87;;;2.60;99.90;;;;;;4190387;28;20479;-54
2020/12/06 00:35:04;;;;;;;26.97;12.20;;;2.60;99.90;;;;;;4190915;28;20547;-54
2020/12/06 00:37:06;;;;;;;29.43;12.87;;;2.60;99.90;;;;;;4189706;28;20462;-54
2020/12/06 00:39:07;;;;;;;28.80;11.50;;;2.60;99.90;;;;;;4191149;28;20472;-54
2020/12/06 00:41:12;;;;;;;27.73;12.37;;;2.60;99.90;;;;;;4190209;28;20497;-53
2020/12/06 00:43:14;;;;;;;28.17;12.23;;;2.50;99.90;;;;;;4190431;28;20475;-53
2020/12/06 00:45:15;;;;;;;25.50;11.97;;;2.60;99.90;;;;;;4190936;28;20478;-54
2020/12/06 00:47:16;;;;;;;27.50;11.73;;;2.60;99.90;;;;;;4192581;28;20827;-53
2020/12/06 00:49:18;;;;;;;26.60;12.10;;;2.60;99.90;;;;;;4191721;28;20477;-54
2020/12/06 00:51:19;;;;;;;25.60;11.27;;;2.50;99.90;;;;;;4191460;28;20502;-53
2020/12/06 00:53:20;;;;;;;25.63;11.37;;;2.60;99.90;;;;;;4191493;28;20470;-54
2020/12/06 00:55:23;;;;;;;27.03;11.33;;;2.60;99.90;;;;;;4193577;28;20475;-53
2020/12/06 00:57:25;;;;;;;25.87;10.93;;;2.60;99.90;;;;;;4189439;28;20493;-54
2020/12/06 00:59:27;;;;;;;27.47;12.67;;;2.60;99.90;;;;;;4190165;28;20470;-53
2020/12/06 01:01:28;;;;;;;29.17;13.30;;;2.60;99.90;;;;;;4190772;28;20976;-54
2020/12/06 01:03:29;;;;;;;29.77;13.07;;;2.60;99.90;;;;;;4191215;28;20467;-53
2020/12/06 01:05:31;;;;;;;29.30;12.33;;;2.60;99.90;;;;;;4190885;28;20466;-54
2020/12/06 01:07:35;;;;;;;28.80;12.13;;;2.50;99.90;;;;;;4190686;28;20510;-54
2020/12/06 01:09:36;;;;;;;29.87;12.70;;;2.60;99.90;;;;;;4190287;28;20475;-54
2020/12/06 01:11:38;;;;;;;28.17;12.17;;;2.60;99.90;;;;;;4191375;28;20476;-53
2020/12/06 01:13:41;;;;;;;31.57;13.33;;;2.60;99.90;;;;;;4190749;28;20469;-53
2020/12/06 01:15:42;;;;;;;27.33;12.13;;;2.60;99.90;;;;;;4190764;28;20481;-53
2020/12/06 01:17:44;;;;;;;30.33;12.73;;;2.50;99.90;;;;;;4191389;28;20467;-53
2020/12/06 01:19:45;;;;;;;27.93;12.00;;;2.60;99.90;;;;;;4189798;28;20468;-53
2020/12/06 01:21:50;;;;;;;27.17;12.43;;;2.60;99.90;;;;;;4192094;28;20497;-52
2020/12/06 01:23:52;;;;;;;26.53;11.80;;;2.60;99.90;;;;;;4190865;28;20461;-53
2020/12/06 01:25:53;;;;;;;28.33;11.97;;;2.60;99.90;;;;;;4191098;28;20503;-55
2020/12/06 01:27:54;;;;;;;28.70;12.47;;;2.60;99.90;;;;;;4189683;28;20491;-54
2020/12/06 01:29:57;;;;;;;30.00;12.13;;;2.50;99.90;;;;;;4191283;28;20479;-54
2020/12/06 01:31:58;;;;;;;28.77;12.10;;;2.60;99.90;;;;;;4191192;28;20491;-54
2020/12/06 01:33:59;;;;;;;28.23;12.03;;;2.50;99.90;;;;;;4190114;28;20497;-53
2020/12/06 01:36:01;;;;;;;30.37;13.30;;;2.50;99.90;;;;;;4189647;28;20477;-53
2020/12/06 01:38:03;;;;;;;30.53;13.77;;;2.60;99.90;;;;;;4191887;28;20470;-53
2020/12/06 01:40:04;;;;;;;33.40;13.17;;;2.60;99.90;;;;;;4190616;28;20476;-54
2020/12/06 01:42:05;;;;;;;29.93;12.83;;;2.60;99.90;;;;;;4189804;28;20474;-55
2020/12/06 01:44:07;;;;;;;31.70;13.33;;;2.50;99.90;;;;;;4190255;28;20470;-54
2020/12/06 01:46:13;;;;;;;30.70;12.57;;;2.50;99.90;;;;;;4189861;28;20482;-54
2020/12/06 01:48:15;;;;;;;31.67;13.67;;;2.50;99.90;;;;;;4189608;28;20495;-54
2020/12/06 01:50:18;;;;;;;28.43;12.40;;;2.50;99.90;;;;;;4189114;28;20472;-54
2020/12/06 01:52:20;;;;;;;27.47;12.13;;;2.50;99.90;;;;;;4191068;28;20475;-55
2020/12/06 01:54:22;;;;;;;30.63;12.90;;;2.50;99.90;;;;;;4191359;28;20529;-54
2020/12/06 01:56:23;;;;;;;30.43;12.13;;;2.60;99.90;;;;;;4188104;28;20521;-54
2020/12/06 01:58:25;;;;;;;25.83;12.03;;;2.50;99.90;;;;;;4190208;28;20472;-54
2020/12/06 02:00:26;;;;;;;33.30;13.60;;;2.50;99.90;;;;;;4189874;28;20477;-54
2020/12/06 02:02:29;;;;;;;28.70;12.60;;;2.50;99.90;;;;;;4188920;28;20477;-54
2020/12/06 02:04:32;;;;;;;30.77;12.33;;;2.50;99.90;;;;;;4190285;28;20471;-54
2020/12/06 02:06:33;;;;;;;32.93;12.93;;;2.50;99.90;;;;;;4188356;28;20824;-53
2020/12/06 02:08:35;;;;;;;32.90;13.90;;;2.50;99.90;;;;;;4189470;28;20500;-54
2020/12/06 02:10:36;;;;;;;30.33;12.73;;;2.50;99.90;;;;;;4190119;28;20478;-55
2020/12/06 02:12:43;;;;;;;30.40;12.97;;;2.50;99.90;;;;;;4192096;28;20825;-54
2020/12/06 02:14:44;;;;;;;32.20;12.93;;;2.50;99.90;;;;;;4194206;28;20465;-54
2020/12/06 02:16:46;;;;;;;31.53;13.13;;;2.50;99.90;;;;;;4192077;28;20479;-55
2020/12/06 02:18:49;;;;;;;29.50;12.57;;;2.50;99.90;;;;;;4192579;28;20476;-54
2020/12/06 02:20:51;;;;;;;34.97;14.47;;;2.40;99.90;;;;;;4192887;28;20930;-55
2020/12/06 02:22:52;;;;;;;30.07;13.40;;;2.40;99.90;;;;;;4192796;28;20474;-55
2020/12/06 02:24:54;;;;;;;33.07;13.23;;;2.40;99.90;;;;;;4192976;28;20972;-54
2020/12/06 02:26:55;;;;;;;31.47;12.37;;;2.40;99.90;;;;;;4193471;28;20484;-54
2020/12/06 02:28:56;;;;;;;32.83;12.83;;;2.40;99.90;;;;;;4191521;28;20475;-54
2020/12/06 02:30:58;;;;;;;27.90;12.47;;;2.40;99.90;;;;;;4193600;28;20488;-55
2020/12/06 02:33:00;;;;;;;32.70;13.20;;;2.40;99.90;;;;;;4191973;28;20501;-54
2020/12/06 02:35:03;;;;;;;28.03;11.77;;;2.50;99.90;;;;;;4191240;28;20500;-54
2020/12/06 02:37:05;;;;;;;25.43;11.53;;;2.50;99.90;;;;;;4191966;28;20465;-54
2020/12/06 02:39:08;;;;;;;27.70;11.93;;;2.50;99.90;;;;;;4191167;28;20474;-54
2020/12/06 02:41:09;;;;;;;25.40;11.50;;;2.50;99.90;;;;;;4192498;28;20474;-55
2020/12/06 02:43:11;;;;;;;30.40;12.40;;;2.50;99.90;;;;;;4194635;28;20838;-55
2020/12/06 02:45:12;;;;;;;27.83;11.70;;;2.50;99.90;;;;;;4192346;28;20533;-55
2020/12/06 02:47:13;;;;;;;31.97;13.07;;;2.50;99.90;;;;;;4194360;28;20486;-55
2020/12/06 02:49:15;;;;;;;29.53;13.33;;;2.50;99.90;;;;;;4193499;28;20471;-55
2020/12/06 02:51:16;;;;;;;29.87;12.70;;;2.50;99.90;;;;;;4193543;28;20492;-54
2020/12/06 02:53:18;;;;;;;29.73;13.37;;;2.50;99.90;;;;;;4193095;28;20956;-54
2020/12/06 02:55:20;;;;;;;29.73;12.70;;;2.50;99.90;;;;;;4192137;28;20980;-54
2020/12/06 02:57:21;;;;;;;28.70;12.50;;;2.50;99.90;;;;;;4193084;28;20822;-55
2020/12/06 02:59:22;;;;;;;27.27;12.33;;;2.50;99.90;;;;;;4192008;28;20470;-55
2020/12/06 03:01:27;;;;;;;28.97;12.47;;;2.50;99.90;;;;;;4192706;28;20489;-55
2020/12/06 03:03:28;;;;;;;31.57;13.10;;;2.50;99.90;;;;;;4192767;28;20495;-55
2020/12/06 03:05:30;;;;;;;28.37;12.90;;;2.50;99.90;;;;;;4192521;28;20469;-55
2020/12/06 03:07:31;;;;;;;28.13;12.20;;;2.60;99.90;;;;;;4193096;28;20495;-55
2020/12/06 03:09:33;;;;;;;28.27;12.33;;;2.50;99.90;;;;;;4191647;28;20473;-55
2020/12/06 03:11:35;;;;;;;26.70;11.23;;;2.60;99.90;;;;;;4192299;28;20473;-55
2020/12/06 03:13:36;;;;;;;29.57;13.10;;;2.50;99.90;;;;;;4193110;28;20490;-54
2020/12/06 03:15:38;;;;;;;34.13;13.10;;;2.60;99.90;;;;;;4191843;28;20495;-55
2020/12/06 03:17:39;;;;;;;26.87;12.03;;;2.60;99.90;;;;;;4191810;28;20463;-54
2020/12/06 03:19:40;;;;;;;26.83;11.53;;;2.60;99.90;;;;;;4192268;28;20467;-55
2020/12/06 03:21:42;;;;;;;30.90;13.23;;;2.60;99.90;;;;;;4192679;28;22495;-55
2020/12/06 03:23:43;;;;;;;31.77;12.93;;;2.60;99.90;;;;;;4192787;28;20477;-55
2020/12/06 03:25:45;;;;;;;30.90;13.13;;;2.60;99.90;;;;;;4193554;28;20508;-54
2020/12/06 03:27:46;;;;;;;28.70;12.77;;;2.60;99.90;;;;;;4192127;28;20495;-55
2020/12/06 03:29:48;;;;;;;27.47;12.43;;;2.60;99.90;;;;;;4193155;28;20466;-54
2020/12/06 03:31:49;;;;;;;26.90;12.57;;;2.60;99.90;;;;;;4192354;28;20478;-55
2020/12/06 03:33:50;;;;;;;30.90;12.70;;;2.60;99.90;;;;;;4193350;28;20462;-55
2020/12/06 03:35:52;;;;;;;28.50;11.40;;;2.60;99.90;;;;;;4191735;28;20943;-54
2020/12/06 03:37:53;;;;;;;26.43;10.77;;;2.60;99.90;;;;;;4191314;28;20463;-55
2020/12/06 03:39:54;;;;;;;31.13;12.10;;;2.60;99.90;;;;;;4191535;28;20484;-54
2020/12/06 03:41:57;;;;;;;25.37;10.77;;;2.60;99.90;;;;;;4192497;28;20485;-55
2020/12/06 03:43:58;;;;;;;26.13;10.43;;;2.60;99.90;;;;;;4191466;28;20481;-55
2020/12/06 03:45:59;;;;;;;26.70;10.53;;;2.60;99.90;;;;;;4190364;28;20475;-54
2020/12/06 03:48:01;;;;;;;24.27;10.57;;;2.60;99.90;;;;;;4192517;28;20493;-57
2020/12/06 03:50:03;;;;;;;25.27;11.50;;;2.70;99.90;;;;;;4192235;28;20471;-55
2020/12/06 03:52:04;;;;;;;28.47;11.70;;;2.70;99.90;;;;;;4191129;28;20475;-54
2020/12/06 03:54:05;;;;;;;26.67;11.73;;;2.70;99.90;;;;;;4192208;28;20467;-55
2020/12/06 03:56:07;;;;;;;25.63;10.83;;;2.70;99.90;;;;;;4192288;28;20497;-54
2020/12/06 03:58:09;;;;;;;26.23;10.87;;;2.70;99.90;;;;;;4191158;28;20930;-54
2020/12/06 04:00:11;;;;;;;26.27;10.90;;;2.70;99.90;;;;;;4193173;28;20954;-54
2020/12/06 04:02:13;;;;;;;25.17;10.37;;;2.70;99.90;;;;;;4192298;28;20965;-54
2020/12/06 04:04:15;;;;;;;22.27;9.77;;;2.70;99.90;;;;;;4191107;28;20577;-54
2020/12/06 04:06:16;;;;;;;23.67;10.37;;;2.70;99.90;;;;;;4192339;28;20475;-55
2020/12/06 04:08:18;;;;;;;22.43;10.17;;;2.70;99.90;;;;;;4188951;28;20487;-54
2020/12/06 04:10:19;;;;;;;22.17;9.83;;;2.70;99.90;;;;;;4191643;28;20536;-54
2020/12/06 04:12:21;;;;;;;22.23;9.43;;;2.70;99.90;;;;;;4191113;28;20498;-55
2020/12/06 04:14:23;;;;;;;23.10;10.07;;;2.80;99.90;;;;;;4189836;28;20466;-54
2020/12/06 04:16:24;;;;;;;23.23;9.53;;;2.80;99.90;;;;;;4191495;28;20476;-55
2020/12/06 04:18:26;;;;;;;22.53;9.77;;;2.80;99.90;;;;;;4190156;28;21178;-54
2020/12/06 04:20:27;;;;;;;20.57;9.40;;;2.80;99.90;;;;;;4192163;28;20950;-54
2020/12/06 04:22:28;;;;;;;22.73;9.73;;;2.80;99.90;;;;;;4191764;28;20462;-55
2020/12/06 04:24:30;;;;;;;23.50;10.07;;;2.90;99.90;;;;;;4191923;28;20478;-55
2020/12/06 04:26:31;;;;;;;21.13;8.87;;;2.90;99.90;;;;;;4191684;28;20471;-55
2020/12/06 04:28:32;;;;;;;19.70;8.63;;;2.90;99.90;;;;;;4190670;28;20501;-55
2020/12/06 04:30:35;;;;;;;19.53;8.63;;;2.90;99.90;;;;;;4190566;28;20474;-55
2020/12/06 04:32:36;;;;;;;19.40;9.47;;;2.90;99.90;;;;;;4191878;28;20487;-55
2020/12/06 04:34:37;;;;;;;20.50;9.03;;;2.90;99.90;;;;;;4190332;28;20482;-55
2020/12/06 04:36:39;;;;;;;22.37;9.20;;;2.90;99.90;;;;;;4192702;28;20482;-54
2020/12/06 04:38:40;;;;;;;23.60;9.87;;;3.00;99.90;;;;;;4191535;28;20470;-55
2020/12/06 04:40:41;;;;;;;22.83;9.70;;;3.00;99.90;;;;;;4191467;28;20475;-55
2020/12/06 04:42:43;;;;;;;22.47;9.30;;;3.00;99.90;;;;;;4193889;28;20792;-54
2020/12/06 04:44:44;;;;;;;19.97;9.07;;;3.00;99.90;;;;;;4191434;28;20785;-54
2020/12/06 04:46:47;;;;;;;19.23;9.83;;;3.00;99.90;;;;;;4191058;28;20969;-54
2020/12/06 04:49:11;;;;;;;18.33;8.90;;;3.00;99.90;;;;;;4191863;28;20495;-54
2020/12/06 04:51:14;;;;;;;21.00;8.97;;;3.00;99.90;;;;;;4190979;28;20548;-54
2020/12/06 04:53:18;;;;;;;19.83;9.10;;;3.00;99.90;;;;;;4192310;28;20574;-54
2020/12/06 04:55:20;;;;;;;18.63;8.67;;;3.00;99.90;;;;;;4190732;28;20466;-54
2020/12/06 04:57:23;;;;;;;19.57;8.80;;;3.00;99.90;;;;;;4189580;28;20521;-54
2020/12/06 04:59:26;;;;;;;21.70;8.63;;;3.00;99.90;;;;;;4190234;28;20563;-54
2020/12/06 05:01:33;;;;;;;19.67;8.93;;;3.00;99.90;;;;;;4189398;28;20497;-54
2020/12/06 05:03:39;;;;;;;21.93;9.13;;;3.00;99.90;;;;;;4190249;28;20464;-54
2020/12/06 05:05:41;;;;;;;19.57;8.37;;;3.00;99.90;;;;;;4190152;28;20471;-54
2020/12/06 05:07:45;;;;;;;17.37;8.30;;;3.00;99.90;;;;;;4189624;28;20491;-54
2020/12/06 05:09:48;;;;;;;17.90;8.60;;;3.00;99.90;;;;;;4191048;28;20467;-54
2020/12/06 05:11:50;;;;;;;21.40;8.43;;;3.00;99.90;;;;;;4190757;28;20483;-54
2020/12/06 05:13:51;;;;;;;17.30;8.33;;;3.00;99.90;;;;;;4191373;28;20951;-54
2020/12/06 05:15:54;;;;;;;21.00;8.50;;;3.10;99.90;;;;;;4189770;28;20494;-54
2020/12/06 05:17:57;;;;;;;19.97;9.17;;;3.10;99.90;;;;;;4190039;28;20471;-55
2020/12/06 05:20:09;;;;;;;20.20;8.30;;;3.10;99.90;;;;;;4190800;28;20477;-54
2020/12/06 05:22:11;;;;;;;17.70;8.50;;;3.10;99.90;;;;;;4189667;28;20479;-54
2020/12/06 05:24:12;;;;;;;20.17;8.37;;;3.10;99.90;;;;;;4189834;28;20472;-54
2020/12/06 05:26:17;;;;;;;18.63;8.60;;;3.10;99.90;;;;;;4190851;28;21421;-54
2020/12/06 05:28:19;;;;;;;20.70;8.87;;;3.10;99.90;;;;;;4190211;28;20491;-54
2020/12/06 05:30:21;;;;;;;18.40;8.43;;;3.10;99.90;;;;;;4192110;28;20468;-54
2020/12/06 05:32:22;;;;;;;19.87;9.03;;;3.10;99.90;;;;;;4191044;28;20481;-55
2020/12/06 05:34:23;;;;;;;22.10;10.00;;;3.20;99.90;;;;;;4193728;28;20474;-55
2020/12/06 05:36:25;;;;;;;19.33;8.57;;;3.10;99.90;;;;;;4189653;28;20477;-54
2020/12/06 05:38:27;;;;;;;19.07;8.43;;;3.10;99.90;;;;;;4191101;28;20470;-54
2020/12/06 05:40:28;;;;;;;18.77;8.73;;;3.10;99.90;;;;;;4191153;28;20501;-54
2020/12/06 05:42:31;;;;;;;15.60;7.70;;;3.10;99.90;;;;;;4190313;28;20474;-54
2020/12/06 05:44:32;;;;;;;19.13;8.40;;;3.20;99.90;;;;;;4189663;28;20510;-54
2020/12/06 05:46:35;;;;;;;19.30;8.67;;;3.10;99.90;;;;;;4193349;28;20487;-54
2020/12/06 05:48:38;;;;;;;21.10;9.43;;;3.20;99.90;;;;;;4193001;28;20480;-54
2020/12/06 05:50:40;;;;;;;20.80;10.17;;;3.10;99.90;;;;;;4192494;28;20477;-54
2020/12/06 05:52:42;;;;;;;21.50;9.73;;;3.10;99.90;;;;;;4195135;28;20481;-54
2020/12/06 05:54:44;;;;;;;24.00;10.07;;;3.10;99.90;;;;;;4192560;28;20605;-61
2020/12/06 05:56:47;;;;;;;18.73;8.93;;;3.10;99.90;;;;;;4192546;28;20561;-64
2020/12/06 05:58:50;;;;;;;22.03;10.53;;;3.10;99.90;;;;;;4192630;28;20481;-61
2020/12/06 06:00:51;;;;;;;19.90;9.67;;;3.10;99.90;;;;;;4194161;28;20475;-61
2020/12/06 06:02:57;;;;;;;21.80;9.20;;;3.10;99.90;;;;;;4192988;28;20467;-61
2020/12/06 06:05:03;;;;;;;22.83;9.67;;;3.10;99.90;;;;;;4193483;28;20485;-60
2020/12/06 06:07:07;;;;;;;19.30;9.63;;;3.10;99.90;;;;;;4194911;28;20481;-61
2020/12/06 06:09:12;;;;;;;22.00;9.37;;;3.10;99.90;;;;;;4193011;28;20559;-60
2020/12/06 06:11:21;;;;;;;20.27;8.60;;;3.10;99.90;;;;;;4193084;28;20577;-61
2020/12/06 06:13:25;;;;;;;20.37;8.87;;;3.10;99.90;;;;;;4194551;28;20473;-64
2020/12/06 06:15:27;;;;;;;18.73;8.40;;;3.10;99.90;;;;;;4195370;28;20467;-61
2020/12/06 06:17:30;;;;;;;19.57;8.20;;;3.10;99.90;;;;;;4192181;28;20554;-61
2020/12/06 06:19:31;;;;;;;18.10;8.40;;;3.10;99.90;;;;;;4191118;28;20478;-60
2020/12/06 06:21:36;;;;;;;23.77;9.80;;;3.10;99.90;;;;;;4193168;28;20475;-60
2020/12/06 06:23:39;;;;;;;19.60;9.30;;;3.10;99.90;;;;;;4192925;28;20472;-61
2020/12/06 06:25:41;;;;;;;23.40;9.67;;;3.10;99.90;;;;;;4192545;28;20470;-60
2020/12/06 06:27:42;;;;;;;21.47;9.33;;;3.10;99.90;;;;;;4190464;28;20486;-60
2020/12/06 06:29:44;;;;;;;20.43;8.80;;;3.20;99.90;;;;;;4193507;28;20482;-61
2020/12/06 06:31:49;;;;;;;20.73;9.20;;;3.20;99.90;;;;;;4192915;28;20486;-60
2020/12/06 06:33:50;;;;;;;18.90;8.87;;;3.20;99.90;;;;;;4193394;28;20489;-60
2020/12/06 06:35:53;;;;;;;18.17;8.50;;;3.20;99.90;;;;;;4192343;28;21017;-60
2020/12/06 06:37:54;;;;;;;18.83;8.27;;;3.20;99.90;;;;;;4193665;28;20474;-60
2020/12/06 06:39:59;;;;;;;18.50;8.30;;;3.20;99.90;;;;;;4192687;28;20468;-60
2020/12/06 06:42:06;;;;;;;22.27;9.33;;;3.20;99.90;;;;;;4190985;28;20480;-59
2020/12/06 06:44:08;;;;;;;19.03;8.97;;;3.20;99.90;;;;;;4190679;28;20494;-61
2020/12/06 06:46:13;;;;;;;20.40;9.07;;;3.20;99.90;;;;;;4191137;28;20511;-60
2020/12/06 06:48:16;;;;;;;19.17;9.17;;;3.20;99.90;;;;;;4191957;28;20497;-60
2020/12/06 06:50:18;;;;;;;19.33;8.70;;;3.20;99.90;;;;;;4193831;28;20481;-61
2020/12/06 06:52:20;;;;;;;19.07;9.33;;;3.30;99.90;;;;;;4192582;28;21024;-60
2020/12/06 06:54:29;;;;;;;19.13;9.00;;;3.30;99.90;;;;;;4191599;28;20482;-60
2020/12/06 06:56:31;;;;;;;22.37;9.00;;;3.30;99.90;;;;;;4190953;28;21005;-61
2020/12/06 06:58:34;;;;;;;17.87;8.37;;;3.30;99.90;;;;;;4191039;28;20463;-60
2020/12/06 07:00:35;;;;;;;17.97;8.20;;;3.30;99.90;;;;;;4195197;28;20494;-60
2020/12/06 07:02:38;;;;;;;22.10;8.07;;;3.30;99.90;;;;;;4191400;28;20486;-61
2020/12/06 07:04:46;;;;;;;18.93;8.20;;;3.30;99.90;;;;;;4192144;28;20485;-61
2020/12/06 07:06:48;;;;;;;15.57;7.83;;;3.30;99.90;;;;;;4193458;28;20470;-67
2020/12/06 07:08:51;;;;;;;17.87;7.43;;;3.30;99.90;;;;;;4191778;28;20486;-61
2020/12/06 07:10:53;;;;;;;17.70;8.10;;;3.30;99.90;;;;;;4191650;28;20487;-60
2020/12/06 07:12:56;;;;;;;19.57;8.40;;;3.30;99.90;;;;;;4192372;28;20464;-61
2020/12/06 07:14:59;;;;;;;18.07;8.33;;;3.30;99.90;;;;;;4191121;28;20491;-61
2020/12/06 07:17:00;;;;;;;16.93;7.83;;;3.30;99.90;;;;;;4191007;28;20481;-61
2020/12/06 07:19:01;;;;;;;17.07;7.80;;;3.30;99.90;;;;;;4192021;28;20480;-61
2020/12/06 07:21:03;;;;;;;15.77;7.63;;;3.30;99.90;;;;;;4191485;28;20490;-61
2020/12/06 07:23:04;;;;;;;17.00;7.60;;;3.30;99.90;;;;;;4192110;28;20464;-61
2020/12/06 07:25:07;;;;;;;17.40;8.13;;;3.30;99.90;;;;;;4190550;28;20481;-61
2020/12/06 07:27:09;;;;;;;16.13;7.87;;;3.30;99.90;;;;;;4191170;28;21395;-61
2020/12/06 07:29:11;;;;;;;15.20;7.30;;;3.30;99.90;;;;;;4191096;28;21001;-61
2020/12/06 07:31:15;;;;;;;18.33;8.17;;;3.40;99.90;;;;;;4191514;28;20470;-61
2020/12/06 07:33:17;;;;;;;13.83;6.93;;;3.40;99.90;;;;;;4191818;28;20800;-61
2020/12/06 07:35:23;;;;;;;13.73;6.93;;;3.40;99.90;;;;;;4190832;28;20985;-61
2020/12/06 07:37:24;;;;;;;15.37;7.20;;;3.40;99.90;;;;;;4191574;28;20601;-60
2020/12/06 07:39:26;;;;;;;18.40;7.50;;;3.40;99.90;;;;;;4190475;28;20478;-61
2020/12/06 07:41:27;;;;;;;14.47;7.20;;;3.50;99.90;;;;;;4191515;28;20471;-61
2020/12/06 07:43:29;;;;;;;13.80;6.10;;;3.50;99.90;;;;;;4190823;28;20629;-61
2020/12/06 07:45:30;;;;;;;14.10;6.73;;;3.50;99.90;;;;;;4190565;28;20487;-60
2020/12/06 07:47:33;;;;;;;14.60;6.80;;;3.50;99.90;;;;;;4191086;28;20467;-61
2020/12/06 07:49:42;;;;;;;15.50;6.77;;;3.50;99.90;;;;;;4191051;28;20496;-61
2020/12/06 07:51:43;;;;;;;17.63;7.17;;;3.50;99.90;;;;;;4190980;28;20803;-61
2020/12/06 07:53:49;;;;;;;13.03;6.30;;;3.60;99.90;;;;;;4190064;28;20515;-61
2020/12/06 07:56:03;;;;;;;14.33;6.50;;;3.60;99.90;;;;;;4190403;28;20805;-60
2020/12/06 07:58:10;;;;;;;15.70;7.20;;;3.60;99.90;;;;;;4192471;28;20474;-61
2020/12/06 08:00:14;;;;;;;14.50;6.43;;;3.60;99.90;;;;;;4189844;28;20491;-62
2020/12/06 08:02:16;;;;;;;17.67;8.40;;;3.60;99.90;;;;;;4189590;28;20964;-61
2020/12/06 08:04:24;;;;;;;16.30;8.07;;;3.60;99.90;;;;;;4190678;28;20477;-61
2020/12/06 08:06:28;;;;;;;17.90;8.53;;;3.60;99.90;;;;;;4190064;28;20486;-61
2020/12/06 08:08:34;;;;;;;17.93;8.27;;;3.60;99.90;;;;;;4191187;28;20488;-61
2020/12/06 08:10:36;;;;;;;16.07;7.33;;;3.60;99.90;;;;;;4188531;28;20574;-60
2020/12/06 08:12:41;;;;;;;18.20;8.23;;;3.60;99.90;;;;;;4190711;28;20507;-60
2020/12/06 08:14:43;;;;;;;17.70;8.53;;;3.60;99.90;;;;;;4190375;28;20502;-61
2020/12/06 08:16:55;;;;;;;17.93;8.73;;;3.60;99.90;;;;;;4190733;28;20811;-61
2020/12/06 08:19:00;;;;;;;17.63;8.27;;;3.60;99.90;;;;;;4189317;28;20486;-61
2020/12/06 08:21:03;;;;;;;17.77;8.33;;;3.60;99.90;;;;;;4191303;28;20537;-61
2020/12/06 08:23:04;;;;;;;19.40;8.17;;;3.60;99.90;;;;;;4191620;28;20465;-61
2020/12/06 08:25:06;;;;;;;19.53;8.50;;;3.60;99.90;;;;;;4190097;28;20845;-60
2020/12/06 08:27:20;;;;;;;17.77;8.60;;;3.60;99.90;;;;;;4189356;28;20467;-61
2020/12/06 08:29:40;;;;;;;15.63;7.50;;;3.60;99.90;;;;;;4190792;28;20505;-61
2020/12/06 08:31:42;;;;;;;19.60;8.33;;;3.60;99.90;;;;;;4191139;28;20718;-60
2020/12/06 08:33:43;;;;;;;14.43;7.30;;;3.60;99.90;;;;;;4189852;28;20475;-61
2020/12/06 08:35:47;;;;;;;18.33;7.80;;;3.60;99.90;;;;;;4190920;28;20472;-61
2020/12/06 08:37:49;;;;;;;16.30;7.57;;;3.60;99.90;;;;;;4189688;28;20493;-61
2020/12/06 08:39:51;;;;;;;17.00;7.87;;;3.60;99.90;;;;;;4189791;28;20594;-61
2020/12/06 08:41:52;;;;;;;16.47;7.93;;;3.70;99.90;;;;;;4190972;28;20556;-61
2020/12/06 08:43:55;;;;;;;15.47;7.87;;;3.70;99.90;;;;;;4190801;28;20468;-62
2020/12/06 08:46:07;;;;;;;14.67;7.53;;;3.70;99.90;;;;;;4190032;28;20463;-61
2020/12/06 08:48:08;;;;;;;16.40;7.57;;;3.70;99.90;;;;;;4190660;28;20495;-62
2020/12/06 08:50:12;;;;;;;15.40;7.50;;;3.70;99.90;;;;;;4190019;28;20550;-61
2020/12/06 08:52:20;;;;;;;16.87;7.93;;;3.70;99.90;;;;;;4190119;28;20464;-61
2020/12/06 08:54:33;;;;;;;17.27;7.63;;;3.70;99.90;;;;;;4190897;28;20476;-62
2020/12/06 08:56:36;;;;;;;14.23;6.67;;;3.80;99.90;;;;;;4190864;28;20574;-61
2020/12/06 08:58:38;;;;;;;14.20;7.13;;;3.80;99.90;;;;;;4188967;28;20481;-62
2020/12/06 09:00:39;;;;;;;16.53;7.70;;;3.80;99.90;;;;;;4189242;28;20553;-61
2020/12/06 09:02:41;;;;;;;15.50;7.03;;;3.90;99.90;;;;;;4191429;28;20476;-62
2020/12/06 09:04:42;;;;;;;13.50;6.73;;;3.90;99.90;;;;;;4189767;28;20471;-61
2020/12/06 09:06:44;;;;;;;13.30;6.87;;;3.90;99.90;;;;;;4190166;28;20471;-61
2020/12/06 09:08:46;;;;;;;13.30;7.03;;;3.90;99.90;;;;;;4189402;28;20498;-62
2020/12/06 09:10:48;;;;;;;12.10;6.50;;;4.00;99.90;;;;;;4189439;28;20467;-62
2020/12/06 09:12:49;;;;;;;13.00;7.23;;;4.00;99.90;;;;;;4189825;28;20481;-61
2020/12/06 09:14:51;;;;;;;13.63;7.03;;;4.00;99.90;;;;;;4187165;28;20545;-62
2020/12/06 09:16:52;;;;;;;15.17;7.80;;;4.00;99.90;;;;;;4189851;28;20478;-61
2020/12/06 09:18:53;;;;;;;15.80;7.20;;;4.00;99.90;;;;;;4188756;28;20830;-61
2020/12/06 09:20:55;;;;;;;13.60;7.47;;;4.00;99.90;;;;;;4190869;28;20463;-61
2020/12/06 09:22:56;;;;;;;15.93;7.67;;;4.00;99.90;;;;;;4190602;28;20912;-61
2020/12/06 09:24:58;;;;;;;16.17;7.97;;;4.00;99.90;;;;;;4187639;28;20464;-62
2020/12/06 09:27:00;;;;;;;14.37;7.67;;;4.00;99.90;;;;;;4189175;28;20540;-62
2020/12/06 09:29:01;;;;;;;15.27;7.87;;;4.00;99.90;;;;;;4189146;28;20499;-61
2020/12/06 09:31:03;;;;;;;18.40;8.80;;;4.00;99.90;;;;;;4188498;28;20541;-62
2020/12/06 09:33:04;;;;;;;15.90;7.97;;;4.00;99.90;;;;;;4188737;28;21240;-61
2020/12/06 09:35:05;;;;;;;14.83;7.80;;;4.10;99.90;;;;;;4188777;28;20474;-62
2020/12/06 09:37:06;;;;;;;17.80;8.40;;;4.00;99.90;;;;;;4188668;28;20726;-62
2020/12/06 09:39:08;;;;;;;16.67;7.93;;;4.00;99.90;;;;;;4189519;28;21064;-62
2020/12/06 09:41:12;;;;;;;15.77;7.83;;;4.00;99.90;;;;;;4187942;28;20482;-62
2020/12/06 09:43:14;;;;;;;14.97;7.20;;;4.10;99.90;;;;;;4188474;28;21150;-61
2020/12/06 09:45:16;;;;;;;15.63;7.63;;;4.10;99.90;;;;;;4188113;28;20478;-61
2020/12/06 09:47:17;;;;;;;14.83;7.27;;;4.10;99.90;;;;;;4188464;28;20486;-61
2020/12/06 09:49:19;;;;;;;14.80;7.30;;;4.20;99.90;;;;;;4187762;28;20994;-61
2020/12/06 09:51:20;;;;;;;13.90;7.03;;;4.20;99.90;;;;;;4188225;28;20464;-61
2020/12/06 09:53:21;;;;;;;16.20;7.60;;;4.30;99.90;;;;;;4190450;28;20954;-62
2020/12/06 09:55:23;;;;;;;15.00;7.50;;;4.30;99.90;;;;;;4187804;28;20465;-62
2020/12/06 09:57:25;;;;;;;18.17;8.80;;;4.30;99.90;;;;;;4188029;28;20495;-61
2020/12/06 09:59:27;;;;;;;16.73;8.70;;;4.30;99.90;;;;;;4188778;28;20468;-63
2020/12/06 10:01:28;;;;;;;17.23;8.80;;;4.30;99.90;;;;;;4188391;28;20464;-60
2020/12/06 10:03:31;;;;;;;20.37;9.40;;;4.30;99.90;;;;;;4188701;28;20479;-63
2020/12/06 10:05:32;;;;;;;17.20;9.07;;;4.30;99.90;;;;;;4187657;28;20467;-61
2020/12/06 10:07:34;;;;;;;21.17;10.53;;;4.40;99.90;;;;;;4187663;28;20552;-62
2020/12/06 10:09:35;;;;;;;21.30;9.60;;;4.40;99.90;;;;;;4188973;28;20481;-60
2020/12/06 10:11:36;;;;;;;17.07;8.60;;;4.40;99.90;;;;;;4190032;28;20468;-62
2020/12/06 10:13:38;;;;;;;19.53;8.97;;;4.40;99.90;;;;;;4186874;28;20493;-62
2020/12/06 10:15:42;;;;;;;17.50;9.37;;;4.40;99.90;;;;;;4184929;28;20478;-62
2020/12/06 10:17:45;;;;;;;17.67;9.30;;;4.40;99.90;;;;;;4185406;28;20545;-62
2020/12/06 10:19:48;;;;;;;19.15;9.88;;;4.40;99.90;;;;;;4185977;28;20537;-62
2020/12/06 10:21:50;;;;;;;19.87;9.93;;;4.40;99.90;;;;;;4187128;28;20222;-62
2020/12/06 10:23:51;;;;;;;18.43;9.20;;;4.40;99.90;;;;;;4188819;28;20461;-62
2020/12/06 10:25:53;;;;;;;19.57;8.80;;;4.40;99.90;;;;;;4187876;28;20464;-62
2020/12/06 10:27:54;;;;;;;17.90;8.83;;;4.50;99.90;;;;;;4187091;28;20460;-62
2020/12/06 10:29:55;;;;;;;15.13;8.30;;;4.40;99.90;;;;;;4188973;28;20820;-62
2020/12/06 10:32:00;;;;;;;18.33;9.18;;;4.50;99.90;;;;;;4188186;28;20452;-61
2020/12/06 10:34:01;;;;;;;18.05;10.30;;;4.50;99.90;;;;;;4189969;28;20473;-61